sensor_id;sensor_type;location;lat;lon;timestamp;pressure;altitude;pressure_sealevel;temperature
67829;BMP280;54626;45.436;10.942;2022-12-07T00:01:24;100496.16;;;4.98
67829;BMP280;54626;45.436;10.942;2022-12-07T00:03:52;100494.66;;;4.97
67829;BMP280;54626;45.436;10.942;2022-12-07T00:06:20;100495.13;;;5.01
67829;BMP280;54626;45.436;10.942;2022-12-07T00:08:51;100494.66;;;5.02
67829;BMP280;54626;45.436;10.942;2022-12-07T00:11:20;100490.63;;;4.87
67829;BMP280;54626;45.436;10.942;2022-12-07T00:13:54;100478.44;;;4.88
67829;BMP280;54626;45.436;10.942;2022-12-07T00:16:23;100472.19;;;4.82
67829;BMP280;54626;45.436;10.942;2022-12-07T00:18:50;100465.47;;;4.83
67829;BMP280;54626;45.436;10.942;2022-12-07T00:21:22;100469.75;;;4.95
67829;BMP280;54626;45.436;10.942;2022-12-07T00:23:53;100470.50;;;4.95
67829;BMP280;54626;45.436;10.942;2022-12-07T00:26:29;100474.19;;;4.87
67829;BMP280;54626;45.436;10.942;2022-12-07T00:29:02;100465.72;;;4.79
67829;BMP280;54626;45.436;10.942;2022-12-07T00:31:32;100473.66;;;4.72
67829;BMP280;54626;45.436;10.942;2022-12-07T00:34:01;100466.19;;;4.72
67829;BMP280;54626;45.436;10.942;2022-12-07T00:36:27;100476.09;;;4.59
67829;BMP280;54626;45.436;10.942;2022-12-07T00:38:55;100475.59;;;4.66
67829;BMP280;54626;45.436;10.942;2022-12-07T00:41:25;100477.59;;;4.60
67829;BMP280;54626;45.436;10.942;2022-12-07T00:43:52;100470.88;;;4.61
67829;BMP280;54626;45.436;10.942;2022-12-07T00:46:20;100475.06;;;4.51
67829;BMP280;54626;45.436;10.942;2022-12-07T00:48:48;100477.53;;;4.49
67829;BMP280;54626;45.436;10.942;2022-12-07T00:51:17;100471.59;;;4.56
67829;BMP280;54626;45.436;10.942;2022-12-07T00:53:44;100476.09;;;4.59
67829;BMP280;54626;45.436;10.942;2022-12-07T00:56:13;100477.09;;;4.67
67829;BMP280;54626;45.436;10.942;2022-12-07T00:58:39;100480.59;;;4.62
67829;BMP280;54626;45.436;10.942;2022-12-07T01:01:07;100477.06;;;4.56
67829;BMP280;54626;45.436;10.942;2022-12-07T01:03:35;100469.09;;;4.47
67829;BMP280;54626;45.436;10.942;2022-12-07T01:06:03;100473.31;;;4.48
67829;BMP280;54626;45.436;10.942;2022-12-07T01:08:29;100473.53;;;4.39
67829;BMP280;54626;45.436;10.942;2022-12-07T01:11:04;100471.75;;;4.36
67829;BMP280;54626;45.436;10.942;2022-12-07T01:13:45;100472.03;;;4.38
67829;BMP280;54626;45.436;10.942;2022-12-07T01:16:16;100480.75;;;4.42
67829;BMP280;54626;45.436;10.942;2022-12-07T01:18:45;100480.78;;;4.47
67829;BMP280;54626;45.436;10.942;2022-12-07T01:21:20;100467.88;;;4.53
67829;BMP280;54626;45.436;10.942;2022-12-07T01:23:50;100475.84;;;4.57
67829;BMP280;54626;45.436;10.942;2022-12-07T01:26:22;100478.06;;;4.53
67829;BMP280;54626;45.436;10.942;2022-12-07T01:28:52;100474.28;;;4.40
67829;BMP280;54626;45.436;10.942;2022-12-07T01:31:23;100482.72;;;4.36
67829;BMP280;54626;45.436;10.942;2022-12-07T01:33:53;100475.22;;;4.31
67829;BMP280;54626;45.436;10.942;2022-12-07T01:36:29;100474.03;;;4.38
67829;BMP280;54626;45.436;10.942;2022-12-07T01:38:58;100468.31;;;4.41
67829;BMP280;54626;45.436;10.942;2022-12-07T01:41:27;100474.50;;;4.36
67829;BMP280;54626;45.436;10.942;2022-12-07T01:44:14;100465.78;;;4.32
67829;BMP280;54626;45.436;10.942;2022-12-07T01:46:43;100469.56;;;4.40
67829;BMP280;54626;45.436;10.942;2022-12-07T01:49:16;100469.09;;;4.47
67829;BMP280;54626;45.436;10.942;2022-12-07T01:51:44;100458.63;;;4.51
67829;BMP280;54626;45.436;10.942;2022-12-07T01:54:14;100472.38;;;4.56
67829;BMP280;54626;45.436;10.942;2022-12-07T01:56:48;100464.38;;;4.53
67829;BMP280;54626;45.436;10.942;2022-12-07T01:59:18;100453.63;;;4.39
67829;BMP280;54626;45.436;10.942;2022-12-07T02:01:46;100458.38;;;4.49
67829;BMP280;54626;45.436;10.942;2022-12-07T02:04:13;100460.66;;;4.56
67829;BMP280;54626;45.436;10.942;2022-12-07T02:06:39;100459.41;;;4.57
67829;BMP280;54626;45.436;10.942;2022-12-07T02:09:07;100458.94;;;4.58
67829;BMP280;54626;45.436;10.942;2022-12-07T02:11:35;100457.91;;;4.50
67829;BMP280;54626;45.436;10.942;2022-12-07T02:14:02;100460.19;;;4.57
67829;BMP280;54626;45.436;10.942;2022-12-07T02:16:38;100454.47;;;4.61
67829;BMP280;54626;45.436;10.942;2022-12-07T02:28:29;100457.94;;;4.09
67829;BMP280;54626;45.436;10.942;2022-12-07T02:30:55;100445.78;;;4.15
67829;BMP280;54626;45.436;10.942;2022-12-07T02:33:45;100451.09;;;4.35
67829;BMP280;54626;45.436;10.942;2022-12-07T02:36:38;100439.66;;;4.31
67829;BMP280;54626;45.436;10.942;2022-12-07T02:39:16;100441.81;;;4.16
67829;BMP280;54626;45.436;10.942;2022-12-07T02:41:47;100438.88;;;4.20
67829;BMP280;54626;45.436;10.942;2022-12-07T02:44:17;100441.63;;;4.25
67829;BMP280;54626;45.436;10.942;2022-12-07T02:46:51;100438.22;;;4.41
67829;BMP280;54626;45.436;10.942;2022-12-07T02:49:22;100438.22;;;4.41
67829;BMP280;54626;45.436;10.942;2022-12-07T02:51:49;100439.69;;;4.37
67829;BMP280;54626;45.436;10.942;2022-12-07T02:54:17;100438.41;;;4.32
67829;BMP280;54626;45.436;10.942;2022-12-07T03:10:33;100430.63;;;4.14
67829;BMP280;54626;45.436;10.942;2022-12-07T03:13:09;100423.44;;;4.22
67829;BMP280;54626;45.436;10.942;2022-12-07T03:16:04;100430.97;;;4.33
67829;BMP280;54626;45.436;10.942;2022-12-07T03:18:37;100434.94;;;4.37
67829;BMP280;54626;45.436;10.942;2022-12-07T03:21:11;100435.09;;;4.12
67829;BMP280;54626;45.436;10.942;2022-12-07T03:23:40;100427.88;;;4.14
67829;BMP280;54626;45.436;10.942;2022-12-07T03:26:11;100412.28;;;4.31
67829;BMP280;54626;45.436;10.942;2022-12-07T03:28:43;100422.03;;;4.38
67829;BMP280;54626;45.436;10.942;2022-12-07T03:31:28;100415.25;;;4.22
67829;BMP280;54626;45.436;10.942;2022-12-07T03:34:11;100408.97;;;4.11
67829;BMP280;54626;45.436;10.942;2022-12-07T03:41:54;100409.53;;;4.31
67829;BMP280;54626;45.436;10.942;2022-12-07T03:44:23;100404.84;;;4.37
67829;BMP280;54626;45.436;10.942;2022-12-07T03:47:16;100401.63;;;4.39
67829;BMP280;54626;45.436;10.942;2022-12-07T03:49:58;100392.19;;;4.40
67829;BMP280;54626;45.436;10.942;2022-12-07T03:52:54;100394.94;;;4.45
67829;BMP280;54626;45.436;10.942;2022-12-07T03:55:28;100399.88;;;4.41
67829;BMP280;54626;45.436;10.942;2022-12-07T03:57:59;100393.94;;;4.43
67829;BMP280;54626;45.436;10.942;2022-12-07T04:00:26;100403.41;;;4.47
67829;BMP280;54626;45.436;10.942;2022-12-07T04:02:54;100390.44;;;4.42
67829;BMP280;54626;45.436;10.942;2022-12-07T04:05:21;100381.72;;;4.38
67829;BMP280;54626;45.436;10.942;2022-12-07T04:07:48;100386.22;;;4.41
67829;BMP280;54626;45.436;10.942;2022-12-07T04:10:14;100384.19;;;4.31
67829;BMP280;54626;45.436;10.942;2022-12-07T04:12:41;100385.41;;;4.24
67829;BMP280;54626;45.436;10.942;2022-12-07T04:15:08;100388.31;;;4.10
67829;BMP280;54626;45.436;10.942;2022-12-07T04:17:35;100389.63;;;4.20
67829;BMP280;54626;45.436;10.942;2022-12-07T04:20:03;100392.31;;;4.14
67829;BMP280;54626;45.436;10.942;2022-12-07T04:22:30;100385.59;;;4.15
67829;BMP280;54626;45.436;10.942;2022-12-07T04:24:57;100394.81;;;4.07
67829;BMP280;54626;45.436;10.942;2022-12-07T04:27:23;100390.50;;;3.95
67829;BMP280;54626;45.436;10.942;2022-12-07T04:29:50;100385.75;;;3.95
67829;BMP280;54626;45.436;10.942;2022-12-07T04:32:16;100385.50;;;3.93
67829;BMP280;54626;45.436;10.942;2022-12-07T04:34:42;100383.47;;;3.88
67829;BMP280;54626;45.436;10.942;2022-12-07T04:37:09;100394.81;;;3.70
67829;BMP280;54626;45.436;10.942;2022-12-07T04:39:35;100381.19;;;3.76
67829;BMP280;54626;45.436;10.942;2022-12-07T04:42:02;100391.38;;;3.75
67829;BMP280;54626;45.436;10.942;2022-12-07T04:44:29;100383.50;;;3.83
67829;BMP280;54626;45.436;10.942;2022-12-07T04:46:56;100387.09;;;3.63
67829;BMP280;54626;45.436;10.942;2022-12-07T04:49:24;100389.56;;;3.61
67829;BMP280;54626;45.436;10.942;2022-12-07T04:51:50;100388.50;;;3.53
67829;BMP280;54626;45.436;10.942;2022-12-07T04:54:17;100391.34;;;3.34
67829;BMP280;54626;45.436;10.942;2022-12-07T04:56:43;100389.09;;;3.32
67829;BMP280;54626;45.436;10.942;2022-12-07T04:59:11;100385.88;;;3.34
67829;BMP280;54626;45.436;10.942;2022-12-07T05:01:47;100393.53;;;3.30
67829;BMP280;54626;45.436;10.942;2022-12-07T05:04:14;100395.47;;;3.24
67829;BMP280;54626;45.436;10.942;2022-12-07T05:06:42;100395.47;;;3.24
67829;BMP280;54626;45.436;10.942;2022-12-07T05:09:08;100399.16;;;3.21
67829;BMP280;54626;45.436;10.942;2022-12-07T05:11:35;100395.66;;;3.15
67829;BMP280;54626;45.436;10.942;2022-12-07T05:14:16;100393.69;;;3.15
67829;BMP280;54626;45.436;10.942;2022-12-07T05:16:45;100393.34;;;3.08
67829;BMP280;54626;45.436;10.942;2022-12-07T05:19:12;100388.38;;;3.06
67829;BMP280;54626;45.436;10.942;2022-12-07T05:21:39;100382.66;;;3.04
67829;BMP280;54626;45.436;10.942;2022-12-07T05:24:07;100386.78;;;2.94
67829;BMP280;54626;45.436;10.942;2022-12-07T05:26:34;100386.63;;;3.03
67829;BMP280;54626;45.436;10.942;2022-12-07T05:29:02;100381.50;;;2.91
67829;BMP280;54626;45.436;10.942;2022-12-07T05:31:28;100379.50;;;2.86
67829;BMP280;54626;45.436;10.942;2022-12-07T05:33:55;100373.50;;;2.82
67829;BMP280;54626;45.436;10.942;2022-12-07T05:36:22;100374.03;;;2.86
67829;BMP280;54626;45.436;10.942;2022-12-07T05:38:51;100380.78;;;2.90
67829;BMP280;54626;45.436;10.942;2022-12-07T05:41:18;100380.00;;;2.84
67829;BMP280;54626;45.436;10.942;2022-12-07T05:44:04;100377.88;;;2.74
67829;BMP280;54626;45.436;10.942;2022-12-07T05:46:31;100379.38;;;2.75
67829;BMP280;54626;45.436;10.942;2022-12-07T05:48:57;100384.09;;;2.74
67829;BMP280;54626;45.436;10.942;2022-12-07T05:51:24;100381.91;;;2.78
67829;BMP280;54626;45.436;10.942;2022-12-07T05:53:50;100378.66;;;2.74
67829;BMP280;54626;45.436;10.942;2022-12-07T05:56:17;100385.06;;;2.71
67829;BMP280;54626;45.436;10.942;2022-12-07T05:58:43;100374.75;;;2.61
67829;BMP280;54626;45.436;10.942;2022-12-07T06:01:34;100385.25;;;2.68
67829;BMP280;54626;45.436;10.942;2022-12-07T06:04:02;100392.34;;;2.80
67829;BMP280;54626;45.436;10.942;2022-12-07T06:06:29;100390.66;;;2.82
67829;BMP280;54626;45.436;10.942;2022-12-07T06:08:55;100387.16;;;2.62
67829;BMP280;54626;45.436;10.942;2022-12-07T06:11:27;100387.97;;;2.68
67829;BMP280;54626;45.436;10.942;2022-12-07T06:14:12;100390.53;;;2.71
67829;BMP280;54626;45.436;10.942;2022-12-07T06:16:42;100388.25;;;2.70
67829;BMP280;54626;45.436;10.942;2022-12-07T06:19:08;100381.97;;;2.64
67829;BMP280;54626;45.436;10.942;2022-12-07T06:21:35;100380.03;;;2.64
67829;BMP280;54626;45.436;10.942;2022-12-07T06:24:01;100375.00;;;2.57
67829;BMP280;54626;45.436;10.942;2022-12-07T06:26:28;100399.47;;;2.52
67829;BMP280;54626;45.436;10.942;2022-12-07T06:28:54;100393.13;;;2.40
67829;BMP280;54626;45.436;10.942;2022-12-07T06:31:23;100395.50;;;2.33
67829;BMP280;54626;45.436;10.942;2022-12-07T06:33:50;100394.28;;;2.34
67829;BMP280;54626;45.436;10.942;2022-12-07T06:36:16;100400.97;;;2.13
67829;BMP280;54626;45.436;10.942;2022-12-07T06:38:50;100396.59;;;2.01
67829;BMP280;54626;45.436;10.942;2022-12-07T06:41:17;100396.72;;;1.92
67829;BMP280;54626;45.436;10.942;2022-12-07T06:43:43;100412.50;;;1.88
67829;BMP280;54626;45.436;10.942;2022-12-07T06:46:10;100402.16;;;1.92
67829;BMP280;54626;45.436;10.942;2022-12-07T06:48:36;100410.06;;;1.90
67829;BMP280;54626;45.436;10.942;2022-12-07T06:51:04;100406.44;;;1.79
67829;BMP280;54626;45.436;10.942;2022-12-07T06:53:31;100408.59;;;1.75
67829;BMP280;54626;45.436;10.942;2022-12-07T06:55:57;100413.91;;;1.84
67829;BMP280;54626;45.436;10.942;2022-12-07T06:58:24;100412.44;;;1.83
67829;BMP280;54626;45.436;10.942;2022-12-07T07:00:50;100413.22;;;1.69
67829;BMP280;54626;45.436;10.942;2022-12-07T07:03:17;100405.81;;;1.55
67829;BMP280;54626;45.436;10.942;2022-12-07T07:05:44;100409.38;;;1.61
67829;BMP280;54626;45.436;10.942;2022-12-07T07:08:11;100411.81;;;1.73
67829;BMP280;54626;45.436;10.942;2022-12-07T07:10:53;100414.34;;;1.77
67829;BMP280;54626;45.436;10.942;2022-12-07T07:13:19;100411.94;;;1.84
67829;BMP280;54626;45.436;10.942;2022-12-07T07:15:46;100410.34;;;1.92
67829;BMP280;54626;45.436;10.942;2022-12-07T07:18:12;100400.28;;;1.98
67829;BMP280;54626;45.436;10.942;2022-12-07T07:20:39;100419.91;;;2.02
67829;BMP280;54626;45.436;10.942;2022-12-07T07:23:06;100423.91;;;2.21
67829;BMP280;54626;45.436;10.942;2022-12-07T07:25:33;100423.34;;;2.17
67829;BMP280;54626;45.436;10.942;2022-12-07T07:28:00;100417.94;;;2.23
67829;BMP280;54626;45.436;10.942;2022-12-07T07:30:26;100426.06;;;2.37
67829;BMP280;54626;45.436;10.942;2022-12-07T07:32:57;100422.66;;;2.42
67829;BMP280;54626;45.436;10.942;2022-12-07T07:35:25;100418.31;;;2.50
67829;BMP280;54626;45.436;10.942;2022-12-07T07:37:52;100427.78;;;2.54
67829;BMP280;54626;45.436;10.942;2022-12-07T07:40:18;100438.56;;;2.63
67829;BMP280;54626;45.436;10.942;2022-12-07T07:42:47;100432.13;;;2.66
67829;BMP280;54626;45.436;10.942;2022-12-07T07:45:14;100432.97;;;2.72
67829;BMP280;54626;45.436;10.942;2022-12-07T07:47:41;100426.88;;;2.63
67829;BMP280;54626;45.436;10.942;2022-12-07T07:50:08;100425.44;;;2.67
67829;BMP280;54626;45.436;10.942;2022-12-07T07:52:34;100426.19;;;2.68
67829;BMP280;54626;45.436;10.942;2022-12-07T07:55:01;100434.25;;;2.77
67829;BMP280;54626;45.436;10.942;2022-12-07T07:57:28;100439.41;;;2.75
67829;BMP280;54626;45.436;10.942;2022-12-07T07:59:54;100438.66;;;2.94
67829;BMP280;54626;45.436;10.942;2022-12-07T08:02:21;100436.72;;;3.00
67829;BMP280;54626;45.436;10.942;2022-12-07T08:04:48;100438.81;;;3.11
67829;BMP280;54626;45.436;10.942;2022-12-07T08:07:15;100438.16;;;3.21
67829;BMP280;54626;45.436;10.942;2022-12-07T08:09:41;100438.38;;;3.18
67829;BMP280;54626;45.436;10.942;2022-12-07T08:12:08;100444.53;;;3.13
67829;BMP280;54626;45.436;10.942;2022-12-07T08:14:35;100445.31;;;3.19
67829;BMP280;54626;45.436;10.942;2022-12-07T08:17:01;100438.03;;;3.36
67829;BMP280;54626;45.436;10.942;2022-12-07T08:19:28;100442.63;;;3.49
67829;BMP280;54626;45.436;10.942;2022-12-07T08:21:55;100452.16;;;3.59
67829;BMP280;54626;45.436;10.942;2022-12-07T08:24:22;100442.19;;;3.56
67829;BMP280;54626;45.436;10.942;2022-12-07T08:26:49;100450.22;;;3.65
67829;BMP280;54626;45.436;10.942;2022-12-07T08:29:16;100450.50;;;3.73
67829;BMP280;54626;45.436;10.942;2022-12-07T08:31:43;100455.09;;;3.87
67829;BMP280;54626;45.436;10.942;2022-12-07T08:34:10;100444.50;;;4.05
67829;BMP280;54626;45.436;10.942;2022-12-07T08:36:37;100449.56;;;4.23
67829;BMP280;54626;45.436;10.942;2022-12-07T08:39:03;100453.13;;;4.40
67829;BMP280;54626;45.436;10.942;2022-12-07T08:41:50;100455.41;;;4.47
67829;BMP280;54626;45.436;10.942;2022-12-07T08:44:16;100467.63;;;4.57
67829;BMP280;54626;45.436;10.942;2022-12-07T08:46:50;100461.69;;;4.69
67829;BMP280;54626;45.436;10.942;2022-12-07T08:49:40;100464.50;;;4.80
67829;BMP280;54626;45.436;10.942;2022-12-07T08:52:07;100455.28;;;5.00
67829;BMP280;54626;45.436;10.942;2022-12-07T08:54:35;100461.56;;;5.11
67829;BMP280;54626;45.436;10.942;2022-12-07T08:57:04;100459.84;;;5.36
67829;BMP280;54626;45.436;10.942;2022-12-07T08:59:33;100446.63;;;5.45
67829;BMP280;54626;45.436;10.942;2022-12-07T09:02:00;100449.13;;;5.43
67829;BMP280;54626;45.436;10.942;2022-12-07T09:04:26;100450.09;;;5.62
67829;BMP280;54626;45.436;10.942;2022-12-07T09:06:55;100447.84;;;5.82
67829;BMP280;54626;45.436;10.942;2022-12-07T09:09:21;100446.75;;;6.07
67829;BMP280;54626;45.436;10.942;2022-12-07T09:11:48;100447.50;;;6.13
67829;BMP280;54626;45.436;10.942;2022-12-07T09:14:14;100454.69;;;6.22
67829;BMP280;54626;45.436;10.942;2022-12-07T09:16:41;100454.16;;;6.34
67829;BMP280;54626;45.436;10.942;2022-12-07T09:19:08;100449.28;;;6.62
67829;BMP280;54626;45.436;10.942;2022-12-07T09:21:34;100459.91;;;6.82
67829;BMP280;54626;45.436;10.942;2022-12-07T09:24:01;100456.94;;;6.80
67829;BMP280;54626;45.436;10.942;2022-12-07T09:26:27;100453.66;;;6.81
67829;BMP280;54626;45.436;10.942;2022-12-07T09:28:54;100455.53;;;6.97
67829;BMP280;54626;45.436;10.942;2022-12-07T09:31:20;100459.44;;;7.13
67829;BMP280;54626;45.436;10.942;2022-12-07T09:33:54;100447.50;;;7.05
67829;BMP280;54626;45.436;10.942;2022-12-07T09:36:21;100449.25;;;7.02
67829;BMP280;54626;45.436;10.942;2022-12-07T09:38:48;100451.59;;;7.28
67829;BMP280;54626;45.436;10.942;2022-12-07T09:41:14;100458.78;;;7.60
67829;BMP280;54626;45.436;10.942;2022-12-07T09:43:41;100448.13;;;7.75
67829;BMP280;54626;45.436;10.942;2022-12-07T09:46:13;100445.63;;;7.77
67829;BMP280;54626;45.436;10.942;2022-12-07T09:48:42;100447.38;;;7.98
67829;BMP280;54626;45.436;10.942;2022-12-07T09:51:22;100438.00;;;8.07
67829;BMP280;54626;45.436;10.942;2022-12-07T09:53:53;100437.56;;;8.03
67829;BMP280;54626;45.436;10.942;2022-12-07T09:56:22;100430.94;;;8.11
67829;BMP280;54626;45.436;10.942;2022-12-07T09:58:49;100438.13;;;8.20
67829;BMP280;54626;45.436;10.942;2022-12-07T10:01:21;100432.25;;;8.28
67829;BMP280;54626;45.436;10.942;2022-12-07T10:03:54;100429.84;;;8.56
67829;BMP280;54626;45.436;10.942;2022-12-07T10:06:21;100427.94;;;8.51
67829;BMP280;54626;45.436;10.942;2022-12-07T10:08:48;100429.41;;;8.34
67829;BMP280;54626;45.436;10.942;2022-12-07T10:11:14;100423.81;;;8.21
67829;BMP280;54626;45.436;10.942;2022-12-07T10:13:45;100419.28;;;8.42
67829;BMP280;54626;45.436;10.942;2022-12-07T10:16:37;100415.78;;;8.41
67829;BMP280;54626;45.436;10.942;2022-12-07T10:19:26;100425.28;;;8.59
67829;BMP280;54626;45.436;10.942;2022-12-07T10:22:12;100417.34;;;8.55
67829;BMP280;54626;45.436;10.942;2022-12-07T10:24:41;100424.25;;;8.62
67829;BMP280;54626;45.436;10.942;2022-12-07T10:27:20;100425.34;;;8.72
67829;BMP280;54626;45.436;10.942;2022-12-07T10:29:55;100420.25;;;8.94
67829;BMP280;54626;45.436;10.942;2022-12-07T10:32:31;100412.66;;;9.00
67829;BMP280;54626;45.436;10.942;2022-12-07T10:35:22;100410.75;;;9.21
67829;BMP280;54626;45.436;10.942;2022-12-07T10:37:50;100406.88;;;9.29
67829;BMP280;54626;45.436;10.942;2022-12-07T10:40:32;100402.53;;;9.34
67829;BMP280;54626;45.436;10.942;2022-12-07T10:43:13;100406.66;;;9.40
67829;BMP280;54626;45.436;10.942;2022-12-07T10:48:51;100403.44;;;9.10
67829;BMP280;54626;45.436;10.942;2022-12-07T10:56:32;100401.75;;;9.33
67829;BMP280;54626;45.436;10.942;2022-12-07T10:59:17;100393.81;;;9.30
67829;BMP280;54626;45.436;10.942;2022-12-07T11:02:20;100393.38;;;9.26
67829;BMP280;54626;45.436;10.942;2022-12-07T11:10:55;100389.44;;;9.21
67829;BMP280;54626;45.436;10.942;2022-12-07T11:16:07;100389.59;;;8.98
67829;BMP280;54626;45.436;10.942;2022-12-07T11:24:18;100372.97;;;9.03
67829;BMP280;54626;45.436;10.942;2022-12-07T11:27:18;100379.13;;;8.65
67829;BMP280;54626;45.436;10.942;2022-12-07T11:29:54;100373.03;;;8.53
67829;BMP280;54626;45.436;10.942;2022-12-07T11:38:33;100369.91;;;8.44
67829;BMP280;54626;45.436;10.942;2022-12-07T11:41:05;100366.44;;;8.25
67829;BMP280;54626;45.436;10.942;2022-12-07T11:43:52;100356.16;;;8.44
67829;BMP280;54626;45.436;10.942;2022-12-07T11:46:25;100358.50;;;8.53
67829;BMP280;54626;45.436;10.942;2022-12-07T11:49:01;100349.13;;;8.43
67829;BMP280;54626;45.436;10.942;2022-12-07T11:51:38;100358.16;;;8.43
67829;BMP280;54626;45.436;10.942;2022-12-07T11:54:14;100359.72;;;8.39
67829;BMP280;54626;45.436;10.942;2022-12-07T11:56:43;100354.34;;;8.46
67829;BMP280;54626;45.436;10.942;2022-12-07T11:59:20;100358.06;;;8.49
67829;BMP280;54626;45.436;10.942;2022-12-07T12:07:23;100339.38;;;8.42
67829;BMP280;54626;45.436;10.942;2022-12-07T12:10:21;100333.94;;;8.68
67829;BMP280;54626;45.436;10.942;2022-12-07T12:15:48;100326.59;;;8.89
67829;BMP280;54626;45.436;10.942;2022-12-07T12:18:47;100329.94;;;8.69
67829;BMP280;54626;45.436;10.942;2022-12-07T12:21:18;100323.91;;;8.70
67829;BMP280;54626;45.436;10.942;2022-12-07T12:23:51;100321.25;;;8.65
67829;BMP280;54626;45.436;10.942;2022-12-07T12:26:24;100312.31;;;8.59
67829;BMP280;54626;45.436;10.942;2022-12-07T12:28:55;100315.75;;;8.78
67829;BMP280;54626;45.436;10.942;2022-12-07T12:33:52;100310.50;;;8.93
67829;BMP280;54626;45.436;10.942;2022-12-07T12:36:42;100309.00;;;8.92
67829;BMP280;54626;45.436;10.942;2022-12-07T12:39:16;100306.00;;;8.77
67829;BMP280;54626;45.436;10.942;2022-12-07T12:46:53;100320.25;;;9.06
67829;BMP280;54626;45.436;10.942;2022-12-07T12:51:49;100310.69;;;8.95
67829;BMP280;54626;45.436;10.942;2022-12-07T12:54:22;100304.25;;;8.92
67829;BMP280;54626;45.436;10.942;2022-12-07T12:56:59;100294.78;;;9.01
67829;BMP280;54626;45.436;10.942;2022-12-07T12:59:32;100299.16;;;8.96
67829;BMP280;54626;45.436;10.942;2022-12-07T13:15:40;100284.53;;;9.27
67829;BMP280;54626;45.436;10.942;2022-12-07T13:18:36;100296.81;;;9.26
67829;BMP280;54626;45.436;10.942;2022-12-07T13:23:55;100277.84;;;9.09
67829;BMP280;54626;45.436;10.942;2022-12-07T13:29:16;100275.84;;;9.10
67829;BMP280;54626;45.436;10.942;2022-12-07T13:31:45;100279.84;;;8.96
67829;BMP280;54626;45.436;10.942;2022-12-07T13:36:59;100278.25;;;9.01
67829;BMP280;54626;45.436;10.942;2022-12-07T13:39:27;100281.31;;;8.97
67829;BMP280;54626;45.436;10.942;2022-12-07T13:41:55;100275.06;;;8.97
67829;BMP280;54626;45.436;10.942;2022-12-07T13:44:24;100270.81;;;8.96
67829;BMP280;54626;45.436;10.942;2022-12-07T13:49:38;100274.22;;;9.02
67829;BMP280;54626;45.436;10.942;2022-12-07T13:52:20;100256.50;;;8.97
67829;BMP280;54626;45.436;10.942;2022-12-07T13:54:49;100262.97;;;8.87
67829;BMP280;54626;45.436;10.942;2022-12-07T13:57:17;100263.16;;;8.76
67829;BMP280;54626;45.436;10.942;2022-12-07T13:59:43;100257.22;;;8.72
67829;BMP280;54626;45.436;10.942;2022-12-07T14:02:28;100266.84;;;8.65
67829;BMP280;54626;45.436;10.942;2022-12-07T14:05:14;100267.41;;;8.64
67829;BMP280;54626;45.436;10.942;2022-12-07T14:13:36;100269.03;;;8.41
67829;BMP280;54626;45.436;10.942;2022-12-07T14:18:44;100260.28;;;8.24
67829;BMP280;54626;45.436;10.942;2022-12-07T14:21:16;100255.97;;;8.28
67829;BMP280;54626;45.436;10.942;2022-12-07T14:23:44;100265.19;;;8.31
67829;BMP280;54626;45.436;10.942;2022-12-07T14:26:18;100266.97;;;8.28
67829;BMP280;54626;45.436;10.942;2022-12-07T14:28:48;100276.59;;;8.22
67829;BMP280;54626;45.436;10.942;2022-12-07T14:31:21;100267.53;;;8.09
67829;BMP280;54626;45.436;10.942;2022-12-07T14:33:59;100274.53;;;7.91
67829;BMP280;54626;45.436;10.942;2022-12-07T14:36:25;100274.16;;;8.00
67829;BMP280;54626;45.436;10.942;2022-12-07T14:38:56;100275.53;;;7.94
67829;BMP280;54626;45.436;10.942;2022-12-07T14:41:24;100276.25;;;7.76
67829;BMP280;54626;45.436;10.942;2022-12-07T14:44:16;100283.47;;;7.60
67829;BMP280;54626;45.436;10.942;2022-12-07T14:46:57;100274.88;;;7.45
67829;BMP280;54626;45.436;10.942;2022-12-07T14:49:43;100281.56;;;7.50
67829;BMP280;54626;45.436;10.942;2022-12-07T14:52:13;100290.84;;;7.47
67829;BMP280;54626;45.436;10.942;2022-12-07T14:55:00;100289.66;;;7.42
67829;BMP280;54626;45.436;10.942;2022-12-07T14:57:27;100297.59;;;7.28
67829;BMP280;54626;45.436;10.942;2022-12-07T14:59:53;100285.50;;;7.12
67829;BMP280;54626;45.436;10.942;2022-12-07T15:02:20;100280.06;;;7.07
67829;BMP280;54626;45.436;10.942;2022-12-07T15:04:48;100285.34;;;7.05
67829;BMP280;54626;45.436;10.942;2022-12-07T15:07:18;100291.09;;;7.01
67829;BMP280;54626;45.436;10.942;2022-12-07T15:09:46;100290.47;;;6.90
67829;BMP280;54626;45.436;10.942;2022-12-07T15:12:16;100282.06;;;6.82
67829;BMP280;54626;45.436;10.942;2022-12-07T15:14:53;100291.84;;;6.78
67829;BMP280;54626;45.436;10.942;2022-12-07T15:17:20;100293.09;;;6.71
67829;BMP280;54626;45.436;10.942;2022-12-07T15:20:00;100302.69;;;6.65
67829;BMP280;54626;45.436;10.942;2022-12-07T15:22:27;100310.22;;;6.59
67829;BMP280;54626;45.436;10.942;2022-12-07T15:25:03;100308.03;;;6.52
67829;BMP280;54626;45.436;10.942;2022-12-07T15:27:32;100306.84;;;6.42
67829;BMP280;54626;45.436;10.942;2022-12-07T15:29:59;100300.88;;;6.38
67829;BMP280;54626;45.436;10.942;2022-12-07T15:32:25;100308.88;;;6.36
67829;BMP280;54626;45.436;10.942;2022-12-07T15:34:54;100318.41;;;6.30
67829;BMP280;54626;45.436;10.942;2022-12-07T15:37:20;100316.69;;;6.21
67829;BMP280;54626;45.436;10.942;2022-12-07T15:39:53;100309.28;;;6.11
67829;BMP280;54626;45.436;10.942;2022-12-07T15:42:19;100305.34;;;6.01
67829;BMP280;54626;45.436;10.942;2022-12-07T15:44:46;100319.09;;;5.95
67829;BMP280;54626;45.436;10.942;2022-12-07T15:47:40;100323.13;;;5.83
67829;BMP280;54626;45.436;10.942;2022-12-07T15:50:27;100316.44;;;5.73
67829;BMP280;54626;45.436;10.942;2022-12-07T15:52:55;100315.47;;;5.65
67829;BMP280;54626;45.436;10.942;2022-12-07T15:55:22;100306.53;;;5.59
67829;BMP280;54626;45.436;10.942;2022-12-07T15:57:54;100318.25;;;5.54
67829;BMP280;54626;45.436;10.942;2022-12-07T16:00:21;100324.75;;;5.46
67829;BMP280;54626;45.436;10.942;2022-12-07T16:02:47;100317.03;;;5.39
67829;BMP280;54626;45.436;10.942;2022-12-07T16:05:18;100315.03;;;5.34
67829;BMP280;54626;45.436;10.942;2022-12-07T16:07:45;100307.09;;;5.25